sensor_id;sensor_type;location;lat;lon;timestamp;pressure;altitude;pressure_sealevel;temperature;humidity
13124;BME280;6627;50.920;12.050;2023-04-25T00:00:05;97562.81;;;15.83;47.28
13124;BME280;6627;50.920;12.050;2023-04-25T00:02:33;97486.69;;;15.13;47.36
13124;BME280;6627;50.920;12.050;2023-04-25T00:05:01;97557.88;;;15.70;47.11
13124;BME280;6627;50.920;12.050;2023-04-25T00:07:28;97476.81;;;14.85;48.49
13124;BME280;6627;50.920;12.050;2023-04-25T00:09:55;97560.38;;;15.78;46.38
13124;BME280;6627;50.920;12.050;2023-04-25T00:12:22;97573.78;;;15.45;47.92
13124;BME280;6627;50.920;12.050;2023-04-25T00:14:51;97542.63;;;15.46;47.10
13124;BME280;6627;50.920;12.050;2023-04-25T00:17:20;97525.16;;;15.27;47.40
13124;BME280;6627;50.920;12.050;2023-04-25T00:19:47;97574.47;;;15.61;47.32
13124;BME280;6627;50.920;12.050;2023-04-25T00:22:15;97475.19;;;15.23;47.20
13124;BME280;6627;50.920;12.050;2023-04-25T00:24:44;97477.38;;;15.14;46.94
13124;BME280;6627;50.920;12.050;2023-04-25T00:27:12;97516.25;;;15.11;47.84
13124;BME280;6627;50.920;12.050;2023-04-25T00:29:39;97475.38;;;14.92;47.77
13124;BME280;6627;50.920;12.050;2023-04-25T00:32:08;97495.75;;;14.98;47.74
13124;BME280;6627;50.920;12.050;2023-04-25T00:34:37;97425.03;;;14.27;49.05
13124;BME280;6627;50.920;12.050;2023-04-25T00:37:04;97549.84;;;15.15;48.77
13124;BME280;6627;50.920;12.050;2023-04-25T00:39:31;97675.19;;;16.31;45.62
13124;BME280;6627;50.920;12.050;2023-04-25T00:42:00;97672.00;;;16.26;45.78
13124;BME280;6627;50.920;12.050;2023-04-25T00:44:30;97465.16;;;15.08;46.26
13124;BME280;6627;50.920;12.050;2023-04-25T00:47:00;97552.63;;;15.38;47.24
13124;BME280;6627;50.920;12.050;2023-04-25T00:49:29;97558.72;;;15.31;47.92
13124;BME280;6627;50.920;12.050;2023-04-25T00:51:57;97506.78;;;15.05;47.49
13124;BME280;6627;50.920;12.050;2023-04-25T00:54:25;97592.22;;;15.51;47.80
13124;BME280;6627;50.920;12.050;2023-04-25T00:56:52;97589.56;;;15.55;47.74
13124;BME280;6627;50.920;12.050;2023-04-25T00:59:20;97653.13;;;16.17;46.80
13124;BME280;6627;50.920;12.050;2023-04-25T01:01:49;97619.34;;;16.06;45.56
13124;BME280;6627;50.920;12.050;2023-04-25T01:04:17;97453.22;;;14.54;48.10
13124;BME280;6627;50.920;12.050;2023-04-25T01:06:47;97503.63;;;14.64;48.78
13124;BME280;6627;50.920;12.050;2023-04-25T01:09:15;97427.88;;;14.15;49.55
13124;BME280;6627;50.920;12.050;2023-04-25T01:11:42;97491.34;;;14.35;49.98
13124;BME280;6627;50.920;12.050;2023-04-25T01:14:10;97456.88;;;14.07;50.58
13124;BME280;6627;50.920;12.050;2023-04-25T01:16:37;97578.94;;;14.92;49.32
13124;BME280;6627;50.920;12.050;2023-04-25T01:19:10;97576.09;;;15.04;48.74
13124;BME280;6627;50.920;12.050;2023-04-25T01:21:39;97491.81;;;14.21;50.02
13124;BME280;6627;50.920;12.050;2023-04-25T01:24:07;97526.53;;;14.44;49.84
13124;BME280;6627;50.920;12.050;2023-04-25T01:26:49;97648.03;;;15.34;48.84
13124;BME280;6627;50.920;12.050;2023-04-25T01:29:17;97667.56;;;15.56;48.60
13124;BME280;6627;50.920;12.050;2023-04-25T01:31:45;97581.03;;;15.18;47.57
13124;BME280;6627;50.920;12.050;2023-04-25T01:34:13;97746.06;;;16.44;46.42
13124;BME280;6627;50.920;12.050;2023-04-25T01:36:44;97622.84;;;15.41;47.65
13124;BME280;6627;50.920;12.050;2023-04-25T01:39:11;97525.47;;;14.83;47.53
13124;BME280;6627;50.920;12.050;2023-04-25T01:41:39;97566.28;;;15.19;47.44
13124;BME280;6627;50.920;12.050;2023-04-25T01:44:06;97576.81;;;14.81;48.78
13124;BME280;6627;50.920;12.050;2023-04-25T01:46:34;97448.38;;;13.93;49.62
13124;BME280;6627;50.920;12.050;2023-04-25T01:49:02;97627.28;;;15.30;48.26
13124;BME280;6627;50.920;12.050;2023-04-25T01:51:30;97601.91;;;15.49;46.73
13124;BME280;6627;50.920;12.050;2023-04-25T01:53:59;97607.81;;;15.51;46.32
13124;BME280;6627;50.920;12.050;2023-04-25T01:56:30;97557.31;;;14.99;46.79
13124;BME280;6627;50.920;12.050;2023-04-25T01:58:58;97430.28;;;14.01;48.07
13124;BME280;6627;50.920;12.050;2023-04-25T02:01:25;97519.34;;;14.35;49.04
13124;BME280;6627;50.920;12.050;2023-04-25T02:03:52;97496.56;;;14.44;47.63
13124;BME280;6627;50.920;12.050;2023-04-25T02:06:19;97496.81;;;14.19;48.66
13124;BME280;6627;50.920;12.050;2023-04-25T02:08:46;97533.78;;;14.20;49.92
13124;BME280;6627;50.920;12.050;2023-04-25T02:11:15;97460.78;;;13.91;49.13
13124;BME280;6627;50.920;12.050;2023-04-25T02:13:42;97500.97;;;14.13;49.20
13124;BME280;6627;50.920;12.050;2023-04-25T02:16:09;97431.50;;;13.68;49.59
13124;BME280;6627;50.920;12.050;2023-04-25T02:18:36;97410.19;;;13.38;50.10
13124;BME280;6627;50.920;12.050;2023-04-25T02:21:03;97492.22;;;13.88;49.65
13124;BME280;6627;50.920;12.050;2023-04-25T02:23:31;97556.06;;;14.42;48.74
13124;BME280;6627;50.920;12.050;2023-04-25T02:25:58;97563.16;;;14.46;48.66
13124;BME280;6627;50.920;12.050;2023-04-25T02:28:27;97512.03;;;13.88;49.67
13124;BME280;6627;50.920;12.050;2023-04-25T02:30:54;97440.66;;;13.28;50.54
13124;BME280;6627;50.920;12.050;2023-04-25T02:33:22;97466.22;;;13.59;50.33
13124;BME280;6627;50.920;12.050;2023-04-25T02:35:49;97450.19;;;13.38;50.85
13124;BME280;6627;50.920;12.050;2023-04-25T02:38:17;97524.16;;;13.91;50.32
13124;BME280;6627;50.920;12.050;2023-04-25T02:40:45;97562.53;;;14.18;49.92
13124;BME280;6627;50.920;12.050;2023-04-25T02:43:12;97566.25;;;14.29;49.19
13124;BME280;6627;50.920;12.050;2023-04-25T02:45:41;97548.75;;;13.95;50.30
13124;BME280;6627;50.920;12.050;2023-04-25T02:48:08;97520.81;;;13.98;49.28
13124;BME280;6627;50.920;12.050;2023-04-25T02:50:35;97514.06;;;13.92;49.01
13124;BME280;6627;50.920;12.050;2023-04-25T02:53:02;97595.28;;;14.72;47.71
13124;BME280;6627;50.920;12.050;2023-04-25T02:55:29;97493.91;;;13.77;48.99
13124;BME280;6627;50.920;12.050;2023-04-25T02:57:56;97525.22;;;13.86;49.45
13124;BME280;6627;50.920;12.050;2023-04-25T03:00:24;97563.44;;;14.25;48.71
13124;BME280;6627;50.920;12.050;2023-04-25T03:02:54;97599.13;;;14.52;48.39
13124;BME280;6627;50.920;12.050;2023-04-25T03:05:21;97518.53;;;14.00;48.70
13124;BME280;6627;50.920;12.050;2023-04-25T03:07:49;97492.66;;;13.74;49.20
13124;BME280;6627;50.920;12.050;2023-04-25T03:10:16;97459.06;;;13.51;49.37
13124;BME280;6627;50.920;12.050;2023-04-25T03:12:43;97493.63;;;13.66;49.44
13124;BME280;6627;50.920;12.050;2023-04-25T03:15:10;97582.41;;;14.37;49.08
13124;BME280;6627;50.920;12.050;2023-04-25T03:17:37;97554.00;;;14.19;49.23
13124;BME280;6627;50.920;12.050;2023-04-25T03:20:17;97491.84;;;13.89;49.01
13124;BME280;6627;50.920;12.050;2023-04-25T03:22:45;97431.50;;;13.36;49.25
13124;BME280;6627;50.920;12.050;2023-04-25T03:25:12;97511.16;;;13.53;50.84
13124;BME280;6627;50.920;12.050;2023-04-25T03:27:39;97530.53;;;14.14;48.65
13124;BME280;6627;50.920;12.050;2023-04-25T03:30:07;97551.72;;;14.21;48.25
13124;BME280;6627;50.920;12.050;2023-04-25T03:32:35;97559.34;;;14.31;48.32
13124;BME280;6627;50.920;12.050;2023-04-25T03:35:02;97530.31;;;14.04;48.63
13124;BME280;6627;50.920;12.050;2023-04-25T03:37:31;97555.41;;;14.13;48.75
13124;BME280;6627;50.920;12.050;2023-04-25T03:39:58;97596.13;;;14.57;48.19
13124;BME280;6627;50.920;12.050;2023-04-25T03:42:25;97579.06;;;14.60;47.63
13124;BME280;6627;50.920;12.050;2023-04-25T03:44:53;97441.69;;;13.40;49.12
13124;BME280;6627;50.920;12.050;2023-04-25T03:47:20;97469.94;;;13.51;49.32
13124;BME280;6627;50.920;12.050;2023-04-25T03:49:47;97502.25;;;13.68;49.61
13124;BME280;6627;50.920;12.050;2023-04-25T03:52:17;97524.78;;;13.84;49.36
13124;BME280;6627;50.920;12.050;2023-04-25T03:54:46;97663.03;;;15.25;47.22
13124;BME280;6627;50.920;12.050;2023-04-25T03:57:13;97657.94;;;15.43;46.03
13124;BME280;6627;50.920;12.050;2023-04-25T03:59:40;97531.19;;;14.78;46.44
13124;BME280;6627;50.920;12.050;2023-04-25T04:02:08;97624.34;;;15.38;45.57
13124;BME280;6627;50.920;12.050;2023-04-25T04:04:35;97626.19;;;15.15;46.59
13124;BME280;6627;50.920;12.050;2023-04-25T04:07:03;97567.78;;;14.97;46.16
13124;BME280;6627;50.920;12.050;2023-04-25T04:09:31;97416.19;;;13.95;47.39
13124;BME280;6627;50.920;12.050;2023-04-25T04:12:00;97549.38;;;14.55;47.72
13124;BME280;6627;50.920;12.050;2023-04-25T04:14:28;97593.44;;;14.96;47.11
13124;BME280;6627;50.920;12.050;2023-04-25T04:16:56;97570.16;;;14.98;46.71
13124;BME280;6627;50.920;12.050;2023-04-25T04:19:25;97471.44;;;14.15;47.75
13124;BME280;6627;50.920;12.050;2023-04-25T04:21:52;97561.44;;;14.73;46.95
13124;BME280;6627;50.920;12.050;2023-04-25T04:24:19;97546.94;;;14.50;47.58
13124;BME280;6627;50.920;12.050;2023-04-25T04:26:47;97518.16;;;14.17;48.27
13124;BME280;6627;50.920;12.050;2023-04-25T04:29:16;97442.56;;;13.44;49.38
13124;BME280;6627;50.920;12.050;2023-04-25T04:31:48;97550.38;;;14.15;49.25
13124;BME280;6627;50.920;12.050;2023-04-25T04:34:15;97497.91;;;13.83;49.43
13124;BME280;6627;50.920;12.050;2023-04-25T04:36:43;97577.53;;;14.27;49.82
13124;BME280;6627;50.920;12.050;2023-04-25T04:39:13;97575.94;;;14.26;49.46
13124;BME280;6627;50.920;12.050;2023-04-25T04:41:40;97622.66;;;14.60;49.12
13124;BME280;6627;50.920;12.050;2023-04-25T04:44:07;97677.81;;;14.88;49.21
13124;BME280;6627;50.920;12.050;2023-04-25T04:46:36;97717.56;;;15.25;48.24
13124;BME280;6627;50.920;12.050;2023-04-25T04:49:04;97611.63;;;14.21;50.03
13124;BME280;6627;50.920;12.050;2023-04-25T04:51:32;97597.03;;;14.13;50.16
13124;BME280;6627;50.920;12.050;2023-04-25T04:53:59;97624.97;;;14.26;50.52
13124;BME280;6627;50.920;12.050;2023-04-25T04:56:28;97729.84;;;15.15;49.72
13124;BME280;6627;50.920;12.050;2023-04-25T04:58:57;97759.66;;;15.43;49.15
13124;BME280;6627;50.920;12.050;2023-04-25T05:01:26;97702.00;;;15.25;47.99
13124;BME280;6627;50.920;12.050;2023-04-25T05:03:56;97653.34;;;14.57;49.75
13124;BME280;6627;50.920;12.050;2023-04-25T05:06:27;97691.19;;;14.94;49.34
13124;BME280;6627;50.920;12.050;2023-04-25T05:08:54;97738.75;;;15.31;49.17
13124;BME280;6627;50.920;12.050;2023-04-25T05:11:22;97676.56;;;15.02;48.48
13124;BME280;6627;50.920;12.050;2023-04-25T05:13:51;97835.13;;;16.25;47.48
13124;BME280;6627;50.920;12.050;2023-04-25T05:16:19;97747.47;;;15.72;47.12
13124;BME280;6627;50.920;12.050;2023-04-25T05:18:47;97887.50;;;17.12;44.79
13124;BME280;6627;50.920;12.050;2023-04-25T05:21:15;97860.91;;;17.09;44.40
13124;BME280;6627;50.920;12.050;2023-04-25T05:23:43;97673.72;;;15.92;45.02
13124;BME280;6627;50.920;12.050;2023-04-25T05:26:10;97687.97;;;15.81;45.66
13124;BME280;6627;50.920;12.050;2023-04-25T05:28:40;97775.50;;;16.73;44.13
13124;BME280;6627;50.920;12.050;2023-04-25T05:31:09;97838.38;;;17.19;43.56
13124;BME280;6627;50.920;12.050;2023-04-25T05:33:37;97587.69;;;15.78;44.08
13124;BME280;6627;50.920;12.050;2023-04-25T05:36:05;97690.13;;;16.37;44.18
13124;BME280;6627;50.920;12.050;2023-04-25T05:38:34;97813.22;;;17.10;44.31
13124;BME280;6627;50.920;12.050;2023-04-25T05:41:01;97728.72;;;16.78;43.15
13124;BME280;6627;50.920;12.050;2023-04-25T05:43:28;97724.25;;;16.70;43.90
13124;BME280;6627;50.920;12.050;2023-04-25T05:45:55;97635.97;;;16.20;43.97
13124;BME280;6627;50.920;12.050;2023-04-25T05:48:23;97714.13;;;16.71;43.45
13124;BME280;6627;50.920;12.050;2023-04-25T05:50:50;97721.72;;;17.07;41.84
13124;BME280;6627;50.920;12.050;2023-04-25T05:53:18;97700.88;;;16.96;42.76
13124;BME280;6627;50.920;12.050;2023-04-25T05:55:46;97677.91;;;16.77;42.30
13124;BME280;6627;50.920;12.050;2023-04-25T05:58:13;97565.03;;;16.01;43.17
13124;BME280;6627;50.920;12.050;2023-04-25T06:00:41;97668.00;;;16.69;42.93
13124;BME280;6627;50.920;12.050;2023-04-25T06:03:08;97710.25;;;16.98;42.51
13124;BME280;6627;50.920;12.050;2023-04-25T06:05:36;97605.69;;;16.06;43.75
13124;BME280;6627;50.920;12.050;2023-04-25T06:08:03;97550.13;;;15.72;43.71
13124;BME280;6627;50.920;12.050;2023-04-25T06:10:31;97634.03;;;16.44;42.67
13124;BME280;6627;50.920;12.050;2023-04-25T06:12:59;97656.81;;;16.28;43.69
13124;BME280;6627;50.920;12.050;2023-04-25T06:15:26;97611.94;;;15.83;44.39
13124;BME280;6627;50.920;12.050;2023-04-25T06:17:54;97643.91;;;16.29;43.33
13124;BME280;6627;50.920;12.050;2023-04-25T06:20:21;97729.94;;;17.07;42.36
13124;BME280;6627;50.920;12.050;2023-04-25T06:22:50;97698.03;;;16.65;42.77
13124;BME280;6627;50.920;12.050;2023-04-25T06:25:18;97707.97;;;16.74;42.63
13124;BME280;6627;50.920;12.050;2023-04-25T06:27:46;97702.09;;;16.75;42.48
13124;BME280;6627;50.920;12.050;2023-04-25T06:30:14;97746.41;;;17.11;42.04
13124;BME280;6627;50.920;12.050;2023-04-25T06:32:44;97642.78;;;16.30;43.32
13124;BME280;6627;50.920;12.050;2023-04-25T06:35:12;97658.50;;;16.36;43.16
13124;BME280;6627;50.920;12.050;2023-04-25T06:37:40;97598.97;;;16.00;43.44
13124;BME280;6627;50.920;12.050;2023-04-25T06:40:08;97573.09;;;15.94;43.10
13124;BME280;6627;50.920;12.050;2023-04-25T06:42:36;97632.56;;;16.50;41.96
13124;BME280;6627;50.920;12.050;2023-04-25T06:45:04;97784.19;;;17.55;41.01
13124;BME280;6627;50.920;12.050;2023-04-25T06:47:33;97657.81;;;16.66;41.57
13124;BME280;6627;50.920;12.050;2023-04-25T06:50:00;97657.63;;;16.55;41.89
13124;BME280;6627;50.920;12.050;2023-04-25T06:52:27;97724.00;;;17.02;41.72
13124;BME280;6627;50.920;12.050;2023-04-25T06:54:58;97718.72;;;17.16;40.67
13124;BME280;6627;50.920;12.050;2023-04-25T06:57:25;97778.97;;;17.46;40.68
13124;BME280;6627;50.920;12.050;2023-04-25T06:59:52;97563.50;;;16.26;41.85
13124;BME280;6627;50.920;12.050;2023-04-25T07:02:19;97617.44;;;16.56;41.31
13124;BME280;6627;50.920;12.050;2023-04-25T07:04:48;97637.09;;;16.38;42.26
13124;BME280;6627;50.920;12.050;2023-04-25T07:07:16;97682.38;;;16.89;41.27
13124;BME280;6627;50.920;12.050;2023-04-25T07:09:44;97798.75;;;17.89;40.16
13124;BME280;6627;50.920;12.050;2023-04-25T07:12:11;97599.69;;;16.46;41.22
13124;BME280;6627;50.920;12.050;2023-04-25T07:14:39;97585.91;;;16.12;42.36
13124;BME280;6627;50.920;12.050;2023-04-25T07:17:06;97681.66;;;16.92;41.03
13124;BME280;6627;50.920;12.050;2023-04-25T07:19:33;97586.16;;;16.27;41.57
13124;BME280;6627;50.920;12.050;2023-04-25T07:22:02;97548.00;;;15.84;42.17
13124;BME280;6627;50.920;12.050;2023-04-25T07:24:29;97654.34;;;16.69;41.77
13124;BME280;6627;50.920;12.050;2023-04-25T07:26:57;97684.22;;;16.81;41.65
13124;BME280;6627;50.920;12.050;2023-04-25T07:29:24;97655.00;;;16.62;42.10
13124;BME280;6627;50.920;12.050;2023-04-25T07:31:51;97685.56;;;16.91;41.36
13124;BME280;6627;50.920;12.050;2023-04-25T07:34:20;97764.88;;;17.18;41.73
13124;BME280;6627;50.920;12.050;2023-04-25T07:36:47;97637.75;;;16.32;42.44
13124;BME280;6627;50.920;12.050;2023-04-25T07:39:15;97701.16;;;16.90;40.99
13124;BME280;6627;50.920;12.050;2023-04-25T07:41:42;97665.41;;;16.53;42.03
13124;BME280;6627;50.920;12.050;2023-04-25T07:44:10;97801.06;;;17.60;40.90
13124;BME280;6627;50.920;12.050;2023-04-25T07:46:37;97637.81;;;16.35;41.74
13124;BME280;6627;50.920;12.050;2023-04-25T07:49:04;97694.81;;;16.83;40.97
13124;BME280;6627;50.920;12.050;2023-04-25T07:51:31;97707.25;;;16.80;41.62
13124;BME280;6627;50.920;12.050;2023-04-25T07:53:58;97794.75;;;17.56;40.50
13124;BME280;6627;50.920;12.050;2023-04-25T07:56:27;97718.78;;;17.20;40.56
13124;BME280;6627;50.920;12.050;2023-04-25T07:58:55;97808.31;;;17.46;41.15
13124;BME280;6627;50.920;12.050;2023-04-25T08:01:22;97730.47;;;17.17;41.22
13124;BME280;6627;50.920;12.050;2023-04-25T08:03:49;97702.09;;;16.75;41.57
13124;BME280;6627;50.920;12.050;2023-04-25T08:06:16;97652.94;;;16.29;42.75
13124;BME280;6627;50.920;12.050;2023-04-25T08:08:43;97666.19;;;16.54;42.50
13124;BME280;6627;50.920;12.050;2023-04-25T08:11:10;97566.69;;;15.82;42.68
13124;BME280;6627;50.920;12.050;2023-04-25T08:13:39;97689.59;;;16.51;42.76
13124;BME280;6627;50.920;12.050;2023-04-25T08:16:06;97688.75;;;16.47;42.77
13124;BME280;6627;50.920;12.050;2023-04-25T08:18:33;97717.88;;;16.62;42.74
13124;BME280;6627;50.920;12.050;2023-04-25T08:21:00;97646.91;;;16.20;42.90
13124;BME280;6627;50.920;12.050;2023-04-25T08:23:28;97670.34;;;16.21;42.89
13124;BME280;6627;50.920;12.050;2023-04-25T08:25:56;97665.47;;;16.11;43.47
13124;BME280;6627;50.920;12.050;2023-04-25T08:28:23;97782.84;;;16.69;43.46
13124;BME280;6627;50.920;12.050;2023-04-25T08:30:52;97801.81;;;16.81;43.49
13124;BME280;6627;50.920;12.050;2023-04-25T08:33:19;97780.38;;;16.64;43.68
13124;BME280;6627;50.920;12.050;2023-04-25T08:35:47;97672.25;;;15.98;43.18
13124;BME280;6627;50.920;12.050;2023-04-25T08:38:15;97779.28;;;16.46;43.56
13124;BME280;6627;50.920;12.050;2023-04-25T08:40:44;97731.88;;;16.15;43.72
13124;BME280;6627;50.920;12.050;2023-04-25T08:43:13;97893.22;;;17.26;43.10
13124;BME280;6627;50.920;12.050;2023-04-25T08:45:42;97770.91;;;16.58;42.98
13124;BME280;6627;50.920;12.050;2023-04-25T08:48:13;97797.38;;;16.73;42.78
13124;BME280;6627;50.920;12.050;2023-04-25T08:50:53;97677.75;;;15.78;43.79
13124;BME280;6627;50.920;12.050;2023-04-25T08:53:26;97782.97;;;16.76;42.52
13124;BME280;6627;50.920;12.050;2023-04-25T08:55:54;97739.00;;;16.20;43.44
13124;BME280;6627;50.920;12.050;2023-04-25T08:58:23;97770.91;;;16.35;43.06
13124;BME280;6627;50.920;12.050;2023-04-25T09:00:51;97799.53;;;16.64;42.95
13124;BME280;6627;50.920;12.050;2023-04-25T09:03:20;97824.44;;;16.78;42.43
13124;BME280;6627;50.920;12.050;2023-04-25T09:05:47;97719.13;;;16.00;43.16
13124;BME280;6627;50.920;12.050;2023-04-25T09:08:15;97712.09;;;15.99;42.96
13124;BME280;6627;50.920;12.050;2023-04-25T09:10:42;97794.97;;;16.49;42.67
13124;BME280;6627;50.920;12.050;2023-04-25T09:13:12;97776.84;;;16.40;42.59
13124;BME280;6627;50.920;12.050;2023-04-25T09:15:48;97802.38;;;16.71;42.33
13124;BME280;6627;50.920;12.050;2023-04-25T09:18:24;97886.09;;;17.22;41.68
13124;BME280;6627;50.920;12.050;2023-04-25T09:20:58;97814.09;;;16.49;42.70
13124;BME280;6627;50.920;12.050;2023-04-25T09:23:39;97935.72;;;17.43;42.02
13124;BME280;6627;50.920;12.050;2023-04-25T09:26:08;97834.94;;;16.57;42.99
13124;BME280;6627;50.920;12.050;2023-04-25T09:28:36;97782.91;;;16.30;42.82
13124;BME280;6627;50.920;12.050;2023-04-25T09:31:03;97792.59;;;16.47;42.21
13124;BME280;6627;50.920;12.050;2023-04-25T09:33:33;97834.81;;;16.50;43.12
13124;BME280;6627;50.920;12.050;2023-04-25T09:36:04;97812.59;;;16.51;42.64
13124;BME280;6627;50.920;12.050;2023-04-25T09:38:40;97837.53;;;16.69;42.30
13124;BME280;6627;50.920;12.050;2023-04-25T09:41:08;97979.09;;;17.64;41.58
13124;BME280;6627;50.920;12.050;2023-04-25T09:43:36;97888.84;;;17.22;41.46
13124;BME280;6627;50.920;12.050;2023-04-25T09:46:09;97871.09;;;17.12;41.24
13124;BME280;6627;50.920;12.050;2023-04-25T09:48:38;97882.91;;;17.16;41.29
13124;BME280;6627;50.920;12.050;2023-04-25T09:51:08;97901.25;;;17.38;41.00
13124;BME280;6627;50.920;12.050;2023-04-25T09:53:38;97898.59;;;17.19;41.64
13124;BME280;6627;50.920;12.050;2023-04-25T09:56:10;97896.72;;;17.23;41.34
13124;BME280;6627;50.920;12.050;2023-04-25T09:58:39;97816.88;;;16.95;40.89
13124;BME280;6627;50.920;12.050;2023-04-25T10:01:08;97867.34;;;17.20;41.40
13124;BME280;6627;50.920;12.050;2023-04-25T10:03:39;97825.78;;;16.69;42.59
13124;BME280;6627;50.920;12.050;2023-04-25T10:06:12;97796.44;;;16.43;43.10
13124;BME280;6627;50.920;12.050;2023-04-25T10:08:41;97791.94;;;16.54;42.37
13124;BME280;6627;50.920;12.050;2023-04-25T10:11:09;97905.78;;;17.27;41.96
13124;BME280;6627;50.920;12.050;2023-04-25T10:13:37;97980.59;;;17.58;42.41
13124;BME280;6627;50.920;12.050;2023-04-25T10:16:05;97936.41;;;17.36;42.26
13124;BME280;6627;50.920;12.050;2023-04-25T10:18:33;97904.72;;;17.12;42.67
13124;BME280;6627;50.920;12.050;2023-04-25T10:21:04;97968.88;;;17.61;41.74
13124;BME280;6627;50.920;12.050;2023-04-25T10:23:33;98027.97;;;18.34;40.42
13124;BME280;6627;50.920;12.050;2023-04-25T10:26:01;97893.56;;;17.48;40.81
13124;BME280;6627;50.920;12.050;2023-04-25T10:28:56;97906.31;;;17.36;41.30
13124;BME280;6627;50.920;12.050;2023-04-25T10:31:24;97785.97;;;16.71;41.64
13124;BME280;6627;50.920;12.050;2023-04-25T10:33:51;97910.50;;;17.30;42.10
13124;BME280;6627;50.920;12.050;2023-04-25T10:36:22;97932.53;;;17.37;42.36
13124;BME280;6627;50.920;12.050;2023-04-25T10:38:51;97853.34;;;16.79;43.05
13124;BME280;6627;50.920;12.050;2023-04-25T10:41:19;97734.34;;;15.62;45.27
13124;BME280;6627;50.920;12.050;2023-04-25T10:43:59;97915.81;;;16.38;46.50
13124;BME280;6627;50.920;12.050;2023-04-25T10:46:28;97939.25;;;16.39;47.14
13124;BME280;6627;50.920;12.050;2023-04-25T10:48:58;97847.44;;;15.80;47.34
13124;BME280;6627;50.920;12.050;2023-04-25T10:51:29;97884.09;;;15.79;47.54
13124;BME280;6627;50.920;12.050;2023-04-25T10:54:00;97988.28;;;16.32;47.38
13124;BME280;6627;50.920;12.050;2023-04-25T10:56:30;97918.28;;;15.73;47.81
13124;BME280;6627;50.920;12.050;2023-04-25T10:59:07;97986.53;;;16.24;47.16
13124;BME280;6627;50.920;12.050;2023-04-25T11:01:39;97889.03;;;15.58;47.82
13124;BME280;6627;50.920;12.050;2023-04-25T11:04:20;98025.81;;;16.35;47.36
13124;BME280;6627;50.920;12.050;2023-04-25T11:07:02;97928.41;;;15.73;47.40
13124;BME280;6627;50.920;12.050;2023-04-25T11:09:34;97922.00;;;15.65;47.32
13124;BME280;6627;50.920;12.050;2023-04-25T11:12:02;97964.34;;;16.10;46.76
13124;BME280;6627;50.920;12.050;2023-04-25T11:14:29;98041.59;;;16.77;45.61
13124;BME280;6627;50.920;12.050;2023-04-25T11:16:57;98122.69;;;17.24;45.65
13124;BME280;6627;50.920;12.050;2023-04-25T11:19:27;97880.25;;;15.49;47.67
13124;BME280;6627;50.920;12.050;2023-04-25T11:21:57;98052.19;;;16.63;46.55
13124;BME280;6627;50.920;12.050;2023-04-25T11:24:26;97998.31;;;15.93;48.31
13124;BME280;6627;50.920;12.050;2023-04-25T11:26:54;98004.13;;;15.76;49.58
13124;BME280;6627;50.920;12.050;2023-04-25T11:29:22;98035.72;;;16.24;47.92
13124;BME280;6627;50.920;12.050;2023-04-25T11:31:50;97949.34;;;15.37;49.08
13124;BME280;6627;50.920;12.050;2023-04-25T11:34:17;97984.41;;;15.67;49.07
13124;BME280;6627;50.920;12.050;2023-04-25T11:36:45;98215.47;;;17.49;46.88
13124;BME280;6627;50.920;12.050;2023-04-25T11:39:14;98040.44;;;16.43;46.99
13124;BME280;6627;50.920;12.050;2023-04-25T11:41:42;98176.41;;;17.32;46.68
13124;BME280;6627;50.920;12.050;2023-04-25T11:44:09;98121.06;;;16.84;47.01
13124;BME280;6627;50.920;12.050;2023-04-25T11:46:37;98173.38;;;17.18;46.98
13124;BME280;6627;50.920;12.050;2023-04-25T11:49:05;98198.41;;;17.55;46.53
13124;BME280;6627;50.920;12.050;2023-04-25T11:51:38;98134.50;;;17.28;45.72
13124;BME280;6627;50.920;12.050;2023-04-25T11:54:06;98154.81;;;17.47;45.21
13124;BME280;6627;50.920;12.050;2023-04-25T11:56:35;98119.34;;;17.34;45.17
13124;BME280;6627;50.920;12.050;2023-04-25T11:59:05;98162.16;;;17.62;44.83
13124;BME280;6627;50.920;12.050;2023-04-25T12:01:34;98195.13;;;18.54;42.40
13124;BME280;6627;50.920;12.050;2023-04-25T12:04:13;98138.00;;;18.10;43.02
13124;BME280;6627;50.920;12.050;2023-04-25T12:06:43;98177.84;;;18.50;42.47
13124;BME280;6627;50.920;12.050;2023-04-25T12:09:13;98148.47;;;18.27;43.57
13124;BME280;6627;50.920;12.050;2023-04-25T12:11:44;98069.09;;;17.65;44.08
13124;BME280;6627;50.920;12.050;2023-04-25T12:14:12;97947.84;;;17.19;42.73
13124;BME280;6627;50.920;12.050;2023-04-25T12:16:43;98068.41;;;17.92;42.10
13124;BME280;6627;50.920;12.050;2023-04-25T12:19:14;97954.66;;;17.52;40.65
13124;BME280;6627;50.920;12.050;2023-04-25T12:21:41;97799.56;;;16.45;41.20
13124;BME280;6627;50.920;12.050;2023-04-25T12:24:14;97781.59;;;16.44;40.37
13124;BME280;6627;50.920;12.050;2023-04-25T12:26:53;97826.16;;;16.67;40.55
13124;BME280;6627;50.920;12.050;2023-04-25T12:29:28;97819.00;;;16.82;39.85
13124;BME280;6627;50.920;12.050;2023-04-25T12:31:56;97875.84;;;17.15;39.44
13124;BME280;6627;50.920;12.050;2023-04-25T12:34:24;97723.34;;;16.62;39.01
13124;BME280;6627;50.920;12.050;2023-04-25T12:36:52;97844.94;;;17.37;38.20
13124;BME280;6627;50.920;12.050;2023-04-25T12:39:21;97755.34;;;17.08;37.46
13124;BME280;6627;50.920;12.050;2023-04-25T12:41:52;97863.84;;;17.73;37.62
13124;BME280;6627;50.920;12.050;2023-04-25T12:44:20;97592.72;;;16.49;37.51
13124;BME280;6627;50.920;12.050;2023-04-25T12:46:47;97594.22;;;16.43;37.91
13124;BME280;6627;50.920;12.050;2023-04-25T12:49:16;97780.94;;;17.46;37.29
13124;BME280;6627;50.920;12.050;2023-04-25T12:51:43;97946.66;;;18.46;37.16
13124;BME280;6627;50.920;12.050;2023-04-25T12:54:11;97865.25;;;18.16;36.18
13124;BME280;6627;50.920;12.050;2023-04-25T12:56:38;97823.97;;;18.02;37.00
13124;BME280;6627;50.920;12.050;2023-04-25T12:59:07;97850.19;;;18.36;36.31
13124;BME280;6627;50.920;12.050;2023-04-25T13:01:35;97869.09;;;18.45;36.30
13124;BME280;6627;50.920;12.050;2023-04-25T13:04:02;97669.28;;;17.62;36.43
13124;BME280;6627;50.920;12.050;2023-04-25T13:06:30;97680.84;;;17.48;37.16